sensor_id;sensor_type;location;lat;lon;timestamp;P1;durP1;ratioP1;P2;durP2;ratioP2
44048;SDS011;29717;47.028;15.470;2023-12-04T00:02:23;22.03;;;17.53;;
44048;SDS011;29717;47.028;15.470;2023-12-04T00:04:50;20.67;;;16.90;;
44048;SDS011;29717;47.028;15.470;2023-12-04T00:07:18;21.60;;;16.63;;
44048;SDS011;29717;47.028;15.470;2023-12-04T00:09:45;20.20;;;15.77;;
44048;SDS011;29717;47.028;15.470;2023-12-04T00:12:12;20.87;;;15.77;;
44048;SDS011;29717;47.028;15.470;2023-12-04T00:14:39;17.83;;;14.67;;
44048;SDS011;29717;47.028;15.470;2023-12-04T00:17:05;18.53;;;14.73;;
44048;SDS011;29717;47.028;15.470;2023-12-04T00:19:32;21.60;;;15.47;;
44048;SDS011;29717;47.028;15.470;2023-12-04T00:21:59;18.67;;;14.27;;
44048;SDS011;29717;47.028;15.470;2023-12-04T00:24:27;21.03;;;16.47;;
44048;SDS011;29717;47.028;15.470;2023-12-04T00:26:54;23.77;;;18.80;;
44048;SDS011;29717;47.028;15.470;2023-12-04T00:29:20;22.63;;;17.40;;
44048;SDS011;29717;47.028;15.470;2023-12-04T00:31:47;23.23;;;18.87;;
44048;SDS011;29717;47.028;15.470;2023-12-04T00:34:14;21.30;;;17.17;;
44048;SDS011;29717;47.028;15.470;2023-12-04T00:36:41;21.40;;;16.70;;
44048;SDS011;29717;47.028;15.470;2023-12-04T00:39:07;21.17;;;15.33;;
44048;SDS011;29717;47.028;15.470;2023-12-04T00:41:36;21.03;;;16.27;;
44048;SDS011;29717;47.028;15.470;2023-12-04T00:44:02;19.80;;;14.87;;
44048;SDS011;29717;47.028;15.470;2023-12-04T00:46:29;18.50;;;14.77;;
44048;SDS011;29717;47.028;15.470;2023-12-04T00:48:56;17.20;;;14.77;;
44048;SDS011;29717;47.028;15.470;2023-12-04T00:51:23;20.77;;;16.10;;
44048;SDS011;29717;47.028;15.470;2023-12-04T00:53:50;21.03;;;17.67;;
44048;SDS011;29717;47.028;15.470;2023-12-04T00:56:17;20.73;;;16.27;;
44048;SDS011;29717;47.028;15.470;2023-12-04T00:58:47;22.47;;;16.47;;
44048;SDS011;29717;47.028;15.470;2023-12-04T01:01:14;23.77;;;17.20;;
44048;SDS011;29717;47.028;15.470;2023-12-04T01:03:41;20.93;;;16.67;;
44048;SDS011;29717;47.028;15.470;2023-12-04T01:06:08;17.83;;;14.93;;
44048;SDS011;29717;47.028;15.470;2023-12-04T01:08:35;19.97;;;14.60;;
44048;SDS011;29717;47.028;15.470;2023-12-04T01:11:01;17.90;;;14.20;;
44048;SDS011;29717;47.028;15.470;2023-12-04T01:13:28;21.27;;;15.43;;
44048;SDS011;29717;47.028;15.470;2023-12-04T01:15:56;18.23;;;13.97;;
44048;SDS011;29717;47.028;15.470;2023-12-04T01:18:23;15.97;;;13.40;;
44048;SDS011;29717;47.028;15.470;2023-12-04T01:20:50;19.03;;;14.30;;
44048;SDS011;29717;47.028;15.470;2023-12-04T01:23:16;17.67;;;13.03;;
44048;SDS011;29717;47.028;15.470;2023-12-04T01:25:43;17.40;;;13.50;;
44048;SDS011;29717;47.028;15.470;2023-12-04T01:28:10;18.57;;;14.20;;
44048;SDS011;29717;47.028;15.470;2023-12-04T01:30:36;16.40;;;13.17;;
44048;SDS011;29717;47.028;15.470;2023-12-04T01:33:05;17.13;;;13.53;;
44048;SDS011;29717;47.028;15.470;2023-12-04T01:35:31;16.47;;;14.67;;
44048;SDS011;29717;47.028;15.470;2023-12-04T01:37:58;20.50;;;16.00;;
44048;SDS011;29717;47.028;15.470;2023-12-04T01:40:25;19.00;;;16.07;;
44048;SDS011;29717;47.028;15.470;2023-12-04T01:42:52;20.10;;;17.43;;
44048;SDS011;29717;47.028;15.470;2023-12-04T01:45:19;20.37;;;17.27;;
44048;SDS011;29717;47.028;15.470;2023-12-04T01:47:45;20.40;;;16.97;;
44048;SDS011;29717;47.028;15.470;2023-12-04T01:50:14;21.13;;;17.67;;
44048;SDS011;29717;47.028;15.470;2023-12-04T01:52:41;20.60;;;16.83;;
44048;SDS011;29717;47.028;15.470;2023-12-04T01:55:08;18.80;;;16.53;;
44048;SDS011;29717;47.028;15.470;2023-12-04T01:57:35;19.23;;;16.73;;
44048;SDS011;29717;47.028;15.470;2023-12-04T02:00:03;20.17;;;16.20;;
44048;SDS011;29717;47.028;15.470;2023-12-04T02:02:36;19.83;;;16.60;;
44048;SDS011;29717;47.028;15.470;2023-12-04T02:05:03;19.83;;;16.47;;
44048;SDS011;29717;47.028;15.470;2023-12-04T02:07:32;21.60;;;16.63;;
44048;SDS011;29717;47.028;15.470;2023-12-04T02:09:59;19.57;;;15.30;;
44048;SDS011;29717;47.028;15.470;2023-12-04T02:12:26;19.73;;;14.80;;
44048;SDS011;29717;47.028;15.470;2023-12-04T02:14:53;21.53;;;16.40;;
44048;SDS011;29717;47.028;15.470;2023-12-04T02:17:20;20.50;;;15.57;;
44048;SDS011;29717;47.028;15.470;2023-12-04T02:19:47;18.93;;;15.53;;
44048;SDS011;29717;47.028;15.470;2023-12-04T02:22:14;19.47;;;15.60;;
44048;SDS011;29717;47.028;15.470;2023-12-04T02:24:43;20.17;;;14.27;;
44048;SDS011;29717;47.028;15.470;2023-12-04T02:27:12;17.17;;;14.30;;
44048;SDS011;29717;47.028;15.470;2023-12-04T02:29:41;18.23;;;14.07;;
44048;SDS011;29717;47.028;15.470;2023-12-04T02:32:11;17.93;;;14.87;;
44048;SDS011;29717;47.028;15.470;2023-12-04T02:34:38;17.30;;;13.53;;
44048;SDS011;29717;47.028;15.470;2023-12-04T02:37:07;17.77;;;14.80;;
44048;SDS011;29717;47.028;15.470;2023-12-04T02:39:34;20.53;;;15.30;;
44048;SDS011;29717;47.028;15.470;2023-12-04T02:42:04;19.77;;;15.83;;
44048;SDS011;29717;47.028;15.470;2023-12-04T02:44:31;19.07;;;15.83;;
44048;SDS011;29717;47.028;15.470;2023-12-04T02:46:58;20.40;;;14.90;;
44048;SDS011;29717;47.028;15.470;2023-12-04T02:49:24;16.47;;;14.43;;
44048;SDS011;29717;47.028;15.470;2023-12-04T02:51:51;19.47;;;16.03;;
44048;SDS011;29717;47.028;15.470;2023-12-04T02:54:17;18.70;;;16.47;;
44048;SDS011;29717;47.028;15.470;2023-12-04T02:56:43;19.03;;;16.67;;
44048;SDS011;29717;47.028;15.470;2023-12-04T02:59:10;20.83;;;16.20;;
44048;SDS011;29717;47.028;15.470;2023-12-04T03:01:37;19.20;;;15.90;;
44048;SDS011;29717;47.028;15.470;2023-12-04T03:04:04;19.33;;;16.67;;
44048;SDS011;29717;47.028;15.470;2023-12-04T03:06:31;18.20;;;14.97;;
44048;SDS011;29717;47.028;15.470;2023-12-04T03:08:58;20.10;;;15.37;;
44048;SDS011;29717;47.028;15.470;2023-12-04T03:11:25;18.20;;;15.67;;
44048;SDS011;29717;47.028;15.470;2023-12-04T03:13:52;17.23;;;14.03;;
44048;SDS011;29717;47.028;15.470;2023-12-04T03:16:20;16.07;;;14.37;;
44048;SDS011;29717;47.028;15.470;2023-12-04T03:18:46;15.93;;;13.63;;
44048;SDS011;29717;47.028;15.470;2023-12-04T03:21:13;16.07;;;13.83;;
44048;SDS011;29717;47.028;15.470;2023-12-04T03:23:40;16.63;;;13.73;;
44048;SDS011;29717;47.028;15.470;2023-12-04T03:26:07;15.87;;;13.60;;
44048;SDS011;29717;47.028;15.470;2023-12-04T03:28:33;16.73;;;13.33;;
44048;SDS011;29717;47.028;15.470;2023-12-04T03:31:00;17.77;;;13.27;;
44048;SDS011;29717;47.028;15.470;2023-12-04T03:33:28;16.37;;;13.03;;
44048;SDS011;29717;47.028;15.470;2023-12-04T03:35:55;17.67;;;13.23;;
44048;SDS011;29717;47.028;15.470;2023-12-04T03:38:21;14.40;;;12.53;;
44048;SDS011;29717;47.028;15.470;2023-12-04T03:40:48;14.83;;;12.63;;
44048;SDS011;29717;47.028;15.470;2023-12-04T03:43:15;14.53;;;12.50;;
44048;SDS011;29717;47.028;15.470;2023-12-04T03:45:42;15.30;;;12.23;;
44048;SDS011;29717;47.028;15.470;2023-12-04T03:48:08;13.57;;;11.73;;
44048;SDS011;29717;47.028;15.470;2023-12-04T03:50:36;14.53;;;11.50;;
44048;SDS011;29717;47.028;15.470;2023-12-04T03:53:03;13.77;;;11.77;;
44048;SDS011;29717;47.028;15.470;2023-12-04T03:55:30;14.50;;;11.93;;
44048;SDS011;29717;47.028;15.470;2023-12-04T03:57:57;13.07;;;10.90;;
44048;SDS011;29717;47.028;15.470;2023-12-04T04:00:24;11.87;;;10.37;;
44048;SDS011;29717;47.028;15.470;2023-12-04T04:02:51;14.87;;;10.70;;
44048;SDS011;29717;47.028;15.470;2023-12-04T04:05:18;13.57;;;11.13;;
44048;SDS011;29717;47.028;15.470;2023-12-04T04:07:46;13.03;;;11.33;;
44048;SDS011;29717;47.028;15.470;2023-12-04T04:10:13;12.67;;;10.73;;
44048;SDS011;29717;47.028;15.470;2023-12-04T04:12:40;11.10;;;9.90;;
44048;SDS011;29717;47.028;15.470;2023-12-04T04:15:06;12.07;;;10.17;;
44048;SDS011;29717;47.028;15.470;2023-12-04T04:17:34;10.23;;;8.90;;
44048;SDS011;29717;47.028;15.470;2023-12-04T04:20:01;10.50;;;9.27;;
44048;SDS011;29717;47.028;15.470;2023-12-04T04:22:28;11.53;;;9.00;;
44048;SDS011;29717;47.028;15.470;2023-12-04T04:24:56;12.57;;;10.23;;
44048;SDS011;29717;47.028;15.470;2023-12-04T04:27:23;12.13;;;10.07;;
44048;SDS011;29717;47.028;15.470;2023-12-04T04:29:50;13.10;;;10.43;;
44048;SDS011;29717;47.028;15.470;2023-12-04T04:32:16;11.47;;;9.50;;
44048;SDS011;29717;47.028;15.470;2023-12-04T04:34:43;11.23;;;9.87;;
44048;SDS011;29717;47.028;15.470;2023-12-04T04:37:10;10.77;;;9.33;;
44048;SDS011;29717;47.028;15.470;2023-12-04T04:39:37;11.93;;;9.47;;
44048;SDS011;29717;47.028;15.470;2023-12-04T04:42:06;11.80;;;9.50;;
44048;SDS011;29717;47.028;15.470;2023-12-04T04:44:32;10.97;;;9.43;;
44048;SDS011;29717;47.028;15.470;2023-12-04T04:47:00;11.33;;;10.07;;
44048;SDS011;29717;47.028;15.470;2023-12-04T04:49:27;12.13;;;9.60;;
44048;SDS011;29717;47.028;15.470;2023-12-04T04:51:54;11.27;;;9.53;;
44048;SDS011;29717;47.028;15.470;2023-12-04T04:54:21;10.83;;;8.93;;
44048;SDS011;29717;47.028;15.470;2023-12-04T04:56:48;13.40;;;10.70;;
44048;SDS011;29717;47.028;15.470;2023-12-04T04:59:16;12.40;;;10.33;;
44048;SDS011;29717;47.028;15.470;2023-12-04T05:01:42;12.33;;;9.43;;
44048;SDS011;29717;47.028;15.470;2023-12-04T05:04:09;12.33;;;9.80;;
44048;SDS011;29717;47.028;15.470;2023-12-04T05:06:36;12.83;;;10.40;;
44048;SDS011;29717;47.028;15.470;2023-12-04T05:09:03;12.63;;;10.50;;
44048;SDS011;29717;47.028;15.470;2023-12-04T05:11:30;12.33;;;10.73;;
44048;SDS011;29717;47.028;15.470;2023-12-04T05:13:56;14.33;;;11.93;;
44048;SDS011;29717;47.028;15.470;2023-12-04T05:16:24;13.00;;;11.23;;
44048;SDS011;29717;47.028;15.470;2023-12-04T05:18:51;13.20;;;11.57;;
44048;SDS011;29717;47.028;15.470;2023-12-04T05:21:18;13.37;;;11.33;;
44048;SDS011;29717;47.028;15.470;2023-12-04T05:23:44;14.43;;;11.47;;
44048;SDS011;29717;47.028;15.470;2023-12-04T05:26:11;14.00;;;11.47;;
44048;SDS011;29717;47.028;15.470;2023-12-04T05:28:38;14.40;;;12.90;;
44048;SDS011;29717;47.028;15.470;2023-12-04T05:31:04;17.20;;;13.43;;
44048;SDS011;29717;47.028;15.470;2023-12-04T05:33:33;14.67;;;12.33;;
44048;SDS011;29717;47.028;15.470;2023-12-04T05:36:00;14.77;;;12.10;;
44048;SDS011;29717;47.028;15.470;2023-12-04T05:38:26;16.77;;;12.87;;
44048;SDS011;29717;47.028;15.470;2023-12-04T05:40:53;17.77;;;13.50;;
44048;SDS011;29717;47.028;15.470;2023-12-04T05:43:20;16.77;;;12.87;;
44048;SDS011;29717;47.028;15.470;2023-12-04T05:45:47;15.93;;;13.40;;
44048;SDS011;29717;47.028;15.470;2023-12-04T05:48:13;19.93;;;15.30;;
44048;SDS011;29717;47.028;15.470;2023-12-04T05:50:42;18.20;;;13.23;;
44048;SDS011;29717;47.028;15.470;2023-12-04T05:53:08;16.47;;;14.27;;
44048;SDS011;29717;47.028;15.470;2023-12-04T05:55:36;15.60;;;12.87;;
44048;SDS011;29717;47.028;15.470;2023-12-04T05:58:03;15.33;;;13.37;;
44048;SDS011;29717;47.028;15.470;2023-12-04T06:00:29;15.93;;;12.43;;
44048;SDS011;29717;47.028;15.470;2023-12-04T06:02:56;16.30;;;12.17;;
44048;SDS011;29717;47.028;15.470;2023-12-04T06:05:23;15.83;;;12.60;;
44048;SDS011;29717;47.028;15.470;2023-12-04T06:07:51;15.13;;;12.70;;
44048;SDS011;29717;47.028;15.470;2023-12-04T06:10:18;16.60;;;13.83;;
44048;SDS011;29717;47.028;15.470;2023-12-04T06:12:45;16.33;;;12.93;;
44048;SDS011;29717;47.028;15.470;2023-12-04T06:15:11;14.60;;;11.87;;
44048;SDS011;29717;47.028;15.470;2023-12-04T06:17:38;19.03;;;13.83;;
44048;SDS011;29717;47.028;15.470;2023-12-04T06:20:05;16.77;;;13.37;;
44048;SDS011;29717;47.028;15.470;2023-12-04T06:22:32;16.60;;;13.60;;
44048;SDS011;29717;47.028;15.470;2023-12-04T06:25:01;16.13;;;13.50;;
44048;SDS011;29717;47.028;15.470;2023-12-04T06:27:28;18.83;;;13.10;;
44048;SDS011;29717;47.028;15.470;2023-12-04T06:29:55;14.73;;;11.83;;
44048;SDS011;29717;47.028;15.470;2023-12-04T06:32:22;14.57;;;11.80;;
44048;SDS011;29717;47.028;15.470;2023-12-04T06:34:49;16.27;;;12.37;;
44048;SDS011;29717;47.028;15.470;2023-12-04T06:37:16;14.70;;;11.67;;
44048;SDS011;29717;47.028;15.470;2023-12-04T06:39:43;13.63;;;11.30;;
44048;SDS011;29717;47.028;15.470;2023-12-04T06:42:13;15.27;;;11.90;;
44048;SDS011;29717;47.028;15.470;2023-12-04T06:44:40;15.57;;;11.77;;
44048;SDS011;29717;47.028;15.470;2023-12-04T06:47:08;14.60;;;11.93;;
44048;SDS011;29717;47.028;15.470;2023-12-04T06:49:35;15.40;;;12.00;;
44048;SDS011;29717;47.028;15.470;2023-12-04T06:52:02;14.57;;;12.43;;
44048;SDS011;29717;47.028;15.470;2023-12-04T06:54:29;12.93;;;10.97;;
44048;SDS011;29717;47.028;15.470;2023-12-04T06:56:55;17.90;;;11.93;;
44048;SDS011;29717;47.028;15.470;2023-12-04T06:59:23;14.73;;;12.00;;
44048;SDS011;29717;47.028;15.470;2023-12-04T07:01:50;17.40;;;11.97;;
44048;SDS011;29717;47.028;15.470;2023-12-04T07:04:17;12.90;;;10.77;;
44048;SDS011;29717;47.028;15.470;2023-12-04T07:06:46;12.97;;;10.67;;
44048;SDS011;29717;47.028;15.470;2023-12-04T07:09:12;14.60;;;12.00;;
44048;SDS011;29717;47.028;15.470;2023-12-04T07:11:39;16.50;;;12.00;;
44048;SDS011;29717;47.028;15.470;2023-12-04T07:14:06;18.17;;;13.03;;
44048;SDS011;29717;47.028;15.470;2023-12-04T07:16:39;18.03;;;14.13;;
44048;SDS011;29717;47.028;15.470;2023-12-04T07:19:06;23.77;;;17.80;;
44048;SDS011;29717;47.028;15.470;2023-12-04T07:21:33;28.47;;;23.67;;
44048;SDS011;29717;47.028;15.470;2023-12-04T07:24:00;29.37;;;23.30;;
44048;SDS011;29717;47.028;15.470;2023-12-04T07:26:26;29.80;;;21.20;;
44048;SDS011;29717;47.028;15.470;2023-12-04T07:28:53;24.97;;;18.80;;
44048;SDS011;29717;47.028;15.470;2023-12-04T07:31:20;23.77;;;18.30;;
44048;SDS011;29717;47.028;15.470;2023-12-04T07:33:48;21.83;;;16.80;;
44048;SDS011;29717;47.028;15.470;2023-12-04T07:36:15;22.50;;;16.80;;
44048;SDS011;29717;47.028;15.470;2023-12-04T07:38:41;21.27;;;16.37;;
44048;SDS011;29717;47.028;15.470;2023-12-04T07:41:08;21.33;;;15.90;;
44048;SDS011;29717;47.028;15.470;2023-12-04T07:43:35;20.10;;;15.17;;
44048;SDS011;29717;47.028;15.470;2023-12-04T07:46:01;20.37;;;15.90;;
44048;SDS011;29717;47.028;15.470;2023-12-04T07:48:28;23.70;;;18.13;;
44048;SDS011;29717;47.028;15.470;2023-12-04T07:50:57;22.83;;;17.67;;
44048;SDS011;29717;47.028;15.470;2023-12-04T07:53:24;21.40;;;16.20;;
44048;SDS011;29717;47.028;15.470;2023-12-04T07:55:50;24.43;;;17.07;;
44048;SDS011;29717;47.028;15.470;2023-12-04T07:58:17;22.43;;;16.23;;
44048;SDS011;29717;47.028;15.470;2023-12-04T08:00:44;24.27;;;16.17;;
44048;SDS011;29717;47.028;15.470;2023-12-04T08:03:11;18.27;;;14.73;;
44048;SDS011;29717;47.028;15.470;2023-12-04T08:05:38;20.07;;;14.80;;
44048;SDS011;29717;47.028;15.470;2023-12-04T08:08:06;18.43;;;13.53;;
44048;SDS011;29717;47.028;15.470;2023-12-04T08:10:32;15.80;;;12.83;;
44048;SDS011;29717;47.028;15.470;2023-12-04T08:12:59;16.67;;;12.50;;
44048;SDS011;29717;47.028;15.470;2023-12-04T08:15:26;17.97;;;13.40;;
44048;SDS011;29717;47.028;15.470;2023-12-04T08:17:53;20.00;;;13.50;;
44048;SDS011;29717;47.028;15.470;2023-12-04T08:20:21;19.87;;;13.30;;
44048;SDS011;29717;47.028;15.470;2023-12-04T08:22:48;16.83;;;12.90;;
44048;SDS011;29717;47.028;15.470;2023-12-04T08:25:17;18.30;;;14.20;;
44048;SDS011;29717;47.028;15.470;2023-12-04T08:27:43;16.03;;;12.80;;
44048;SDS011;29717;47.028;15.470;2023-12-04T08:30:10;17.07;;;13.43;;
44048;SDS011;29717;47.028;15.470;2023-12-04T08:32:37;21.80;;;13.53;;
44048;SDS011;29717;47.028;15.470;2023-12-04T08:35:04;17.37;;;13.10;;
44048;SDS011;29717;47.028;15.470;2023-12-04T08:37:31;24.37;;;13.33;;
44048;SDS011;29717;47.028;15.470;2023-12-04T08:39:58;18.30;;;13.23;;
44048;SDS011;29717;47.028;15.470;2023-12-04T08:42:26;18.87;;;12.67;;
44048;SDS011;29717;47.028;15.470;2023-12-04T08:44:53;17.23;;;12.37;;
44048;SDS011;29717;47.028;15.470;2023-12-04T08:47:20;21.63;;;14.60;;
44048;SDS011;29717;47.028;15.470;2023-12-04T08:49:47;18.93;;;13.30;;
44048;SDS011;29717;47.028;15.470;2023-12-04T08:52:13;16.93;;;12.43;;
44048;SDS011;29717;47.028;15.470;2023-12-04T08:54:40;15.63;;;11.63;;
44048;SDS011;29717;47.028;15.470;2023-12-04T08:57:07;15.53;;;10.63;;
44048;SDS011;29717;47.028;15.470;2023-12-04T08:59:36;14.53;;;11.13;;
44048;SDS011;29717;47.028;15.470;2023-12-04T09:02:03;22.93;;;11.53;;
44048;SDS011;29717;47.028;15.470;2023-12-04T09:04:30;12.43;;;10.37;;
44048;SDS011;29717;47.028;15.470;2023-12-04T09:06:57;15.33;;;11.37;;
44048;SDS011;29717;47.028;15.470;2023-12-04T09:09:24;15.80;;;10.87;;
44048;SDS011;29717;47.028;15.470;2023-12-04T09:11:50;13.23;;;10.63;;
44048;SDS011;29717;47.028;15.470;2023-12-04T09:14:17;15.57;;;11.63;;
44048;SDS011;29717;47.028;15.470;2023-12-04T09:16:45;11.10;;;9.90;;
44048;SDS011;29717;47.028;15.470;2023-12-04T09:19:12;14.18;;;11.32;;
44048;SDS011;29717;47.028;15.470;2023-12-04T09:21:38;15.07;;;10.75;;
44048;SDS011;29717;47.028;15.470;2023-12-04T09:24:05;13.73;;;10.32;;
44048;SDS011;29717;47.028;15.470;2023-12-04T09:26:32;13.05;;;11.02;;
44048;SDS011;29717;47.028;15.470;2023-12-04T09:28:59;12.88;;;9.82;;
44048;SDS011;29717;47.028;15.470;2023-12-04T09:31:25;13.13;;;10.50;;
44048;SDS011;29717;47.028;15.470;2023-12-04T09:33:54;15.00;;;9.95;;
44048;SDS011;29717;47.028;15.470;2023-12-04T09:36:20;12.13;;;9.25;;
44048;SDS011;29717;47.028;15.470;2023-12-04T09:38:47;11.52;;;10.20;;
44048;SDS011;29717;47.028;15.470;2023-12-04T09:41:14;11.82;;;9.95;;
44048;SDS011;29717;47.028;15.470;2023-12-04T09:43:41;11.65;;;9.80;;
44048;SDS011;29717;47.028;15.470;2023-12-04T09:46:08;13.27;;;9.82;;
44048;SDS011;29717;47.028;15.470;2023-12-04T09:48:36;15.77;;;9.43;;
44048;SDS011;29717;47.028;15.470;2023-12-04T09:51:06;11.25;;;9.80;;
44048;SDS011;29717;47.028;15.470;2023-12-04T09:53:33;11.07;;;9.35;;
44048;SDS011;29717;47.028;15.470;2023-12-04T09:55:59;14.45;;;9.30;;
44048;SDS011;29717;47.028;15.470;2023-12-04T09:58:29;12.25;;;9.07;;
44048;SDS011;29717;47.028;15.470;2023-12-04T10:00:57;10.07;;;9.02;;
44048;SDS011;29717;47.028;15.470;2023-12-04T10:03:25;11.73;;;8.13;;
44048;SDS011;29717;47.028;15.470;2023-12-04T10:05:53;8.48;;;7.32;;
44048;SDS011;29717;47.028;15.470;2023-12-04T10:08:21;8.68;;;7.10;;
44048;SDS011;29717;47.028;15.470;2023-12-04T10:10:48;8.00;;;7.20;;
44048;SDS011;29717;47.028;15.470;2023-12-04T10:13:15;7.80;;;7.10;;
44048;SDS011;29717;47.028;15.470;2023-12-04T10:15:47;7.28;;;6.55;;
44048;SDS011;29717;47.028;15.470;2023-12-04T10:18:24;7.78;;;6.97;;
44048;SDS011;29717;47.028;15.470;2023-12-04T10:20:51;7.85;;;7.15;;
44048;SDS011;29717;47.028;15.470;2023-12-04T10:23:18;8.32;;;7.53;;
44048;SDS011;29717;47.028;15.470;2023-12-04T10:25:46;8.63;;;7.72;;
44048;SDS011;29717;47.028;15.470;2023-12-04T10:28:15;9.25;;;7.88;;
44048;SDS011;29717;47.028;15.470;2023-12-04T10:30:41;8.88;;;8.07;;
44048;SDS011;29717;47.028;15.470;2023-12-04T10:33:08;9.35;;;8.45;;
44048;SDS011;29717;47.028;15.470;2023-12-04T10:35:35;10.70;;;8.50;;
44048;SDS011;29717;47.028;15.470;2023-12-04T10:38:02;11.85;;;8.93;;
44048;SDS011;29717;47.028;15.470;2023-12-04T10:40:30;12.43;;;9.07;;
44048;SDS011;29717;47.028;15.470;2023-12-04T10:43:12;11.85;;;9.02;;
44048;SDS011;29717;47.028;15.470;2023-12-04T10:45:39;12.82;;;9.63;;
44048;SDS011;29717;47.028;15.470;2023-12-04T10:48:06;10.90;;;8.93;;
44048;SDS011;29717;47.028;15.470;2023-12-04T10:50:33;11.90;;;9.15;;
44048;SDS011;29717;47.028;15.470;2023-12-04T10:53:01;10.85;;;8.52;;
44048;SDS011;29717;47.028;15.470;2023-12-04T10:55:27;10.80;;;8.27;;
44048;SDS011;29717;47.028;15.470;2023-12-04T10:57:54;8.95;;;7.72;;
44048;SDS011;29717;47.028;15.470;2023-12-04T11:00:22;8.93;;;7.63;;
44048;SDS011;29717;47.028;15.470;2023-12-04T11:02:49;11.88;;;8.15;;
44048;SDS011;29717;47.028;15.470;2023-12-04T11:05:20;8.27;;;7.47;;
44048;SDS011;29717;47.028;15.470;2023-12-04T11:07:50;8.48;;;7.30;;
44048;SDS011;29717;47.028;15.470;2023-12-04T11:10:18;8.82;;;7.43;;
44048;SDS011;29717;47.028;15.470;2023-12-04T11:12:45;8.23;;;6.57;;
44048;SDS011;29717;47.028;15.470;2023-12-04T11:15:14;10.05;;;7.53;;
44048;SDS011;29717;47.028;15.470;2023-12-04T11:17:44;10.18;;;7.57;;
44048;SDS011;29717;47.028;15.470;2023-12-04T11:20:16;7.85;;;7.05;;
44048;SDS011;29717;47.028;15.470;2023-12-04T11:22:44;9.52;;;7.93;;
44048;SDS011;29717;47.028;15.470;2023-12-04T11:25:11;10.75;;;8.45;;
44048;SDS011;29717;47.028;15.470;2023-12-04T11:27:39;8.55;;;7.60;;
44048;SDS011;29717;47.028;15.470;2023-12-04T11:30:06;11.90;;;7.85;;
44048;SDS011;29717;47.028;15.470;2023-12-04T11:32:43;9.95;;;8.95;;
44048;SDS011;29717;47.028;15.470;2023-12-04T11:35:12;8.80;;;7.90;;
44048;SDS011;29717;47.028;15.470;2023-12-04T11:37:39;10.47;;;8.43;;
44048;SDS011;29717;47.028;15.470;2023-12-04T11:40:06;11.70;;;9.93;;
44048;SDS011;29717;47.028;15.470;2023-12-04T11:42:33;11.23;;;9.20;;
44048;SDS011;29717;47.028;15.470;2023-12-04T11:45:01;10.10;;;8.70;;
44048;SDS011;29717;47.028;15.470;2023-12-04T11:47:28;9.43;;;7.80;;
44048;SDS011;29717;47.028;15.470;2023-12-04T11:49:58;8.07;;;7.27;;
44048;SDS011;29717;47.028;15.470;2023-12-04T11:52:32;8.30;;;7.40;;
44048;SDS011;29717;47.028;15.470;2023-12-04T11:54:59;8.50;;;7.30;;
44048;SDS011;29717;47.028;15.470;2023-12-04T11:57:32;8.70;;;7.80;;
44048;SDS011;29717;47.028;15.470;2023-12-04T12:00:09;10.27;;;8.17;;
44048;SDS011;29717;47.028;15.470;2023-12-04T12:02:38;9.83;;;8.77;;
44048;SDS011;29717;47.028;15.470;2023-12-04T12:05:06;9.20;;;8.20;;
44048;SDS011;29717;47.028;15.470;2023-12-04T12:07:33;10.83;;;8.23;;
44048;SDS011;29717;47.028;15.470;2023-12-04T12:10:00;10.27;;;8.33;;
44048;SDS011;29717;47.028;15.470;2023-12-04T12:12:27;9.50;;;8.07;;
44048;SDS011;29717;47.028;15.470;2023-12-04T12:14:54;9.30;;;8.07;;
44048;SDS011;29717;47.028;15.470;2023-12-04T12:17:21;9.77;;;8.20;;
44048;SDS011;29717;47.028;15.470;2023-12-04T12:19:48;11.13;;;7.73;;
44048;SDS011;29717;47.028;15.470;2023-12-04T12:22:16;8.80;;;7.40;;
44048;SDS011;29717;47.028;15.470;2023-12-04T12:24:43;11.57;;;7.83;;
44048;SDS011;29717;47.028;15.470;2023-12-04T12:27:10;8.23;;;7.27;;
44048;SDS011;29717;47.028;15.470;2023-12-04T12:29:37;9.43;;;7.80;;
44048;SDS011;29717;47.028;15.470;2023-12-04T12:32:04;9.83;;;8.30;;
44048;SDS011;29717;47.028;15.470;2023-12-04T12:34:31;10.30;;;7.87;;
44048;SDS011;29717;47.028;15.470;2023-12-04T12:37:01;10.40;;;8.00;;
44048;SDS011;29717;47.028;15.470;2023-12-04T12:39:30;16.13;;;8.87;;
44048;SDS011;29717;47.028;15.470;2023-12-04T12:41:56;10.30;;;8.43;;
44048;SDS011;29717;47.028;15.470;2023-12-04T12:44:23;11.20;;;8.50;;
44048;SDS011;29717;47.028;15.470;2023-12-04T12:46:50;9.77;;;8.30;;
44048;SDS011;29717;47.028;15.470;2023-12-04T12:49:17;10.37;;;7.83;;
44048;SDS011;29717;47.028;15.470;2023-12-04T12:51:45;10.50;;;8.27;;
44048;SDS011;29717;47.028;15.470;2023-12-04T12:54:12;9.70;;;7.90;;
44048;SDS011;29717;47.028;15.470;2023-12-04T12:56:41;11.07;;;8.17;;
44048;SDS011;29717;47.028;15.470;2023-12-04T12:59:08;11.47;;;7.93;;
44048;SDS011;29717;47.028;15.470;2023-12-04T13:01:35;10.40;;;7.77;;
44048;SDS011;29717;47.028;15.470;2023-12-04T13:04:03;10.87;;;9.07;;
44048;SDS011;29717;47.028;15.470;2023-12-04T13:06:30;9.80;;;8.80;;
44048;SDS011;29717;47.028;15.470;2023-12-04T13:08:57;12.17;;;9.93;;
44048;SDS011;29717;47.028;15.470;2023-12-04T13:11:24;9.83;;;8.60;;
44048;SDS011;29717;47.028;15.470;2023-12-04T13:13:52;12.17;;;9.00;;
44048;SDS011;29717;47.028;15.470;2023-12-04T13:16:19;9.83;;;8.60;;
44048;SDS011;29717;47.028;15.470;2023-12-04T13:18:46;12.10;;;8.43;;
44048;SDS011;29717;47.028;15.470;2023-12-04T13:21:13;12.53;;;8.83;;
44048;SDS011;29717;47.028;15.470;2023-12-04T13:23:39;10.73;;;8.57;;
44048;SDS011;29717;47.028;15.470;2023-12-04T13:26:06;9.33;;;7.77;;
44048;SDS011;29717;47.028;15.470;2023-12-04T13:28:35;24.43;;;18.53;;
44048;SDS011;29717;47.028;15.470;2023-12-04T13:31:04;13.90;;;10.87;;
44048;SDS011;29717;47.028;15.470;2023-12-04T13:33:31;10.73;;;8.37;;
44048;SDS011;29717;47.028;15.470;2023-12-04T13:35:58;9.33;;;8.37;;
44048;SDS011;29717;47.028;15.470;2023-12-04T13:38:25;11.13;;;7.63;;
44048;SDS011;29717;47.028;15.470;2023-12-04T13:40:51;10.00;;;8.63;;
44048;SDS011;29717;47.028;15.470;2023-12-04T13:43:33;11.07;;;8.37;;
44048;SDS011;29717;47.028;15.470;2023-12-04T13:46:19;9.60;;;7.97;;
44048;SDS011;29717;47.028;15.470;2023-12-04T13:48:46;9.60;;;8.47;;
44048;SDS011;29717;47.028;15.470;2023-12-04T13:51:13;9.73;;;8.73;;
44048;SDS011;29717;47.028;15.470;2023-12-04T13:53:39;10.50;;;8.27;;
44048;SDS011;29717;47.028;15.470;2023-12-04T13:56:10;14.17;;;8.43;;
44048;SDS011;29717;47.028;15.470;2023-12-04T13:58:50;10.17;;;8.23;;
44048;SDS011;29717;47.028;15.470;2023-12-04T14:01:23;11.47;;;8.53;;
44048;SDS011;29717;47.028;15.470;2023-12-04T14:03:54;10.63;;;8.47;;
44048;SDS011;29717;47.028;15.470;2023-12-04T14:06:21;9.70;;;8.70;;
44048;SDS011;29717;47.028;15.470;2023-12-04T14:08:48;11.50;;;9.50;;
44048;SDS011;29717;47.028;15.470;2023-12-04T14:11:15;10.63;;;9.40;;
44048;SDS011;29717;47.028;15.470;2023-12-04T14:13:42;10.73;;;8.77;;
44048;SDS011;29717;47.028;15.470;2023-12-04T14:16:09;11.17;;;9.57;;
44048;SDS011;29717;47.028;15.470;2023-12-04T14:18:37;13.83;;;9.90;;